Time;durP1;ratioP1;P1;durP2;ratioP2;P2;SDS_P1;SDS_P2;PMS_P1;PMS_P2;Temp;Humidity;BMP_temperature;BMP_pressure;BME280_temperature;BME280_humidity;BME280_pressure;Samples;Min_cycle;Max_cycle;Signal;HPM_P1;HPM_P2
2022/02/09 00:02:19;;;;;;;3.17;1.90;;;9.10;96.40;;;;;;5061336;28;20083;-49
2022/02/09 00:07:44;;;;;;;4.43;2.00;;;9.10;96.40;;;;;;5058650;28;20390;-49
2022/02/09 00:10:09;;;;;;;3.22;1.80;;;9.10;96.40;;;;;;5062921;28;20143;-49
2022/02/09 00:12:42;;;;;;;2.17;1.50;;;9.20;96.50;;;;;;5063908;28;20469;-49
2022/02/09 00:15:36;;;;;;;5.85;1.92;;;9.10;96.40;;;;;;5062336;28;20051;-49
2022/02/09 00:18:07;;;;;;;3.35;2.03;;;9.10;96.40;;;;;;5061937;28;20122;-49
2022/02/09 00:21:01;;;;;;;6.97;2.05;;;9.10;96.30;;;;;;5062465;28;20295;-50
2022/02/09 00:29:03;;;;;;;5.63;2.33;;;9.10;96.30;;;;;;5064439;28;20056;-49
2022/02/09 00:32:27;;;;;;;10.68;2.45;;;9.10;96.30;;;;;;5059257;28;20535;-49
2022/02/09 01:12:27;;;;;;;9.05;2.40;;;9.10;96.50;;;;;;5062504;28;20053;-50
2022/02/09 01:55:47;;;;;;;3.92;2.25;;;9.10;96.30;;;;;;5058300;28;20091;-49
2022/02/09 01:58:12;;;;;;;8.48;2.72;;;9.00;96.40;;;;;;5063188;28;20059;-50
2022/02/09 02:00:38;;;;;;;6.03;2.72;;;9.00;96.30;;;;;;5058655;28;20582;-50
2022/02/09 02:03:04;;;;;;;6.30;3.10;;;9.10;96.40;;;;;;5058760;28;20357;-49
2022/02/09 02:05:30;;;;;;;9.68;3.13;;;9.10;96.30;;;;;;5056390;28;20485;-49
2022/02/09 02:07:59;;;;;;;5.68;2.60;;;9.10;96.30;;;;;;5061191;28;20132;-49
2022/02/09 02:10:36;;;;;;;10.43;3.03;;;9.10;96.30;;;;;;5060453;28;20060;-49
2022/02/09 02:18:08;;;;;;;7.38;2.50;;;9.10;96.20;;;;;;5055894;28;20029;-49
2022/02/09 02:20:51;;;;;;;7.93;2.85;;;9.10;96.20;;;;;;5056692;28;20013;-49
2022/02/09 02:26:13;;;;;;;7.63;2.78;;;9.10;96.20;;;;;;5061933;28;20077;-49
2022/02/09 02:37:05;;;;;;;10.23;2.83;;;9.00;96.20;;;;;;5057089;28;20028;-50
2022/02/09 03:09:08;;;;;;;3.88;2.08;;;8.90;96.10;;;;;;5053438;28;20046;-49
2022/02/09 03:14:20;;;;;;;6.03;2.28;;;8.90;96.10;;;;;;5067376;28;20056;-50
2022/02/09 03:16:57;;;;;;;5.32;2.65;;;8.90;96.10;;;;;;5055582;28;20086;-49
2022/02/09 03:24:38;;;;;;;8.75;2.80;;;8.80;96.10;;;;;;5065120;28;20435;-49
2022/02/09 03:27:25;;;;;;;5.35;2.60;;;8.90;96.10;;;;;;5055316;28;20044;-50
2022/02/09 03:44:08;;;;;;;3.03;2.28;;;8.80;96.00;;;;;;5059803;28;20036;-49
2022/02/09 03:49:39;;;;;;;4.43;2.33;;;8.80;96.00;;;;;;5061081;28;20051;-50
2022/02/09 03:55:06;;;;;;;7.13;2.67;;;8.80;96.00;;;;;;5068815;28;20041;-49
2022/02/09 03:57:44;;;;;;;5.45;2.03;;;8.80;96.00;;;;;;5063512;28;20107;-49
2022/02/09 04:00:11;;;;;;;3.53;2.17;;;8.70;96.00;;;;;;5061759;28;20400;-49
2022/02/09 04:02:37;;;;;;;7.03;2.05;;;8.70;96.00;;;;;;5054350;28;20037;-49
2022/02/09 04:05:03;;;;;;;3.65;2.38;;;8.70;96.00;;;;;;5057063;28;20074;-49
2022/02/09 04:07:28;;;;;;;4.55;2.10;;;8.70;96.00;;;;;;5057624;28;20510;-49
2022/02/09 04:09:58;;;;;;;6.78;2.80;;;8.70;96.00;;;;;;5060104;28;20033;-49
2022/02/09 04:15:03;;;;;;;3.88;2.22;;;8.70;96.00;;;;;;5063013;28;20025;-49
2022/02/09 04:17:44;;;;;;;3.60;1.95;;;8.70;96.00;;;;;;5057031;28;20040;-49
2022/02/09 04:23:15;;;;;;;6.00;2.35;;;8.70;95.90;;;;;;5064190;28;20024;-49
2022/02/09 04:39:26;;;;;;;6.90;3.25;;;8.60;95.90;;;;;;5061842;28;20434;-50
2022/02/09 04:42:20;;;;;;;8.65;3.28;;;8.60;95.90;;;;;;5061339;28;20498;-49
2022/02/09 04:47:57;;;;;;;7.45;2.78;;;8.60;95.90;;;;;;5072057;28;20049;-49
2022/02/09 04:50:30;;;;;;;6.00;2.50;;;8.60;95.90;;;;;;5064343;28;20324;-49
2022/02/09 04:57:55;;;;;;;5.18;2.63;;;8.60;95.80;;;;;;5062151;28;20090;-49
2022/02/09 05:24:37;;;;;;;8.45;3.70;;;8.50;95.80;;;;;;5061358;28;20115;-49
2022/02/09 05:27:15;;;;;;;4.13;2.53;;;8.50;95.80;;;;;;5059527;28;20116;-49
2022/02/09 05:29:40;;;;;;;6.93;3.00;;;8.50;95.80;;;;;;5061388;28;20095;-49
2022/02/09 05:32:06;;;;;;;5.70;2.65;;;8.50;95.70;;;;;;5059975;28;20025;-49
2022/02/09 05:34:32;;;;;;;6.18;2.72;;;8.50;95.70;;;;;;5060982;28;20033;-50
2022/02/09 05:37:00;;;;;;;8.45;3.30;;;8.50;95.70;;;;;;5058785;28;20036;-49
2022/02/09 05:39:26;;;;;;;8.88;2.55;;;8.50;95.70;;;;;;5062715;28;20344;-49
2022/02/09 05:41:52;;;;;;;4.38;3.08;;;8.50;95.70;;;;;;5063813;28;20111;-49
2022/02/09 05:44:18;;;;;;;6.00;3.08;;;8.50;95.70;;;;;;5063619;28;20066;-50
2022/02/09 05:52:02;;;;;;;6.10;3.22;;;8.50;95.70;;;;;;5059751;28;20032;-50
2022/02/09 05:57:25;;;;;;;15.35;3.10;;;8.50;95.70;;;;;;5057231;28;20471;-50
2022/02/09 05:59:51;;;;;;;10.77;3.10;;;8.50;95.70;;;;;;5059640;28;20113;-50
2022/02/09 06:02:19;;;;;;;11.27;3.30;;;8.50;95.70;;;;;;5059752;28;20394;-49
2022/02/09 06:04:46;;;;;;;7.30;2.88;;;8.50;95.60;;;;;;5053033;28;20374;-50
2022/02/09 06:07:13;;;;;;;9.40;3.97;;;8.50;95.60;;;;;;5062880;28;20029;-49
2022/02/09 06:09:40;;;;;;;8.05;3.28;;;8.50;95.60;;;;;;5057136;28;20033;-49
2022/02/09 06:12:16;;;;;;;11.70;3.33;;;8.50;95.70;;;;;;5061793;28;20035;-49
2022/02/09 06:20:10;;;;;;;12.45;3.47;;;8.50;95.60;;;;;;5060413;28;20067;-49
2022/02/09 06:22:35;;;;;;;7.63;3.15;;;8.40;95.50;;;;;;5052594;28;20021;-49
2022/02/09 06:25:01;;;;;;;8.70;2.80;;;8.40;95.60;;;;;;5055258;28;20502;-50
2022/02/09 06:27:27;;;;;;;15.07;3.60;;;8.40;95.50;;;;;;5061732;28;20306;-50
2022/02/09 06:29:52;;;;;;;10.65;3.53;;;8.40;95.50;;;;;;5056801;28;20389;-50
2022/02/09 06:32:19;;;;;;;5.68;3.28;;;8.50;95.50;;;;;;5056560;28;20024;-50
2022/02/09 06:34:46;;;;;;;10.98;3.53;;;8.50;95.50;;;;;;5065046;28;20488;-50
2022/02/09 06:39:43;;;;;;;8.35;3.63;;;8.40;95.50;;;;;;5070579;28;20081;-50
2022/02/09 06:42:08;;;;;;;7.47;3.60;;;8.40;95.50;;;;;;5071233;28;20060;-50
2022/02/09 06:44:34;;;;;;;8.60;3.78;;;8.40;95.50;;;;;;5071336;28;20056;-50
2022/02/09 06:47:00;;;;;;;4.07;2.38;;;8.40;95.50;;;;;;5069057;28;20462;-51
2022/02/09 06:49:25;;;;;;;9.35;2.75;;;8.40;95.50;;;;;;5067936;28;20024;-49
2022/02/09 06:51:51;;;;;;;5.50;3.17;;;8.30;95.50;;;;;;5068983;28;20025;-50
2022/02/09 06:54:31;;;;;;;8.57;3.97;;;8.30;95.40;;;;;;5070389;28;20025;-50
2022/02/09 06:57:13;;;;;;;14.65;4.22;;;8.40;95.10;;;;;;5070335;28;20050;-50
2022/02/09 06:59:41;;;;;;;7.18;2.83;;;8.40;95.00;;;;;;5069070;28;20041;-50
2022/02/09 07:02:07;;;;;;;6.38;3.30;;;8.40;95.00;;;;;;5064028;28;21081;-51
2022/02/09 07:04:36;;;;;;;10.32;3.53;;;8.40;95.10;;;;;;5071174;28;20036;-50
2022/02/09 07:07:02;;;;;;;7.75;3.70;;;8.40;95.00;;;;;;5068280;28;20012;-50
2022/02/09 07:09:28;;;;;;;9.68;4.43;;;8.40;95.00;;;;;;5067510;28;20066;-50
2022/02/09 07:11:55;;;;;;;5.60;3.03;;;8.40;95.00;;;;;;5069189;28;20523;-50
2022/02/09 07:14:25;;;;;;;5.07;2.78;;;8.40;95.10;;;;;;5072989;28;20039;-50
2022/02/09 07:16:51;;;;;;;6.43;3.15;;;8.40;95.10;;;;;;5070017;28;20030;-50
2022/02/09 07:19:17;;;;;;;7.45;2.70;;;8.40;95.10;;;;;;5064992;28;20438;-50
2022/02/09 07:21:43;;;;;;;7.65;2.92;;;8.50;95.20;;;;;;5068477;28;20037;-50
2022/02/09 07:24:16;;;;;;;16.67;2.38;;;8.50;95.10;;;;;;5069960;28;20024;-50
2022/02/09 07:29:12;;;;;;;10.30;2.85;;;8.50;95.30;;;;;;5069734;28;20075;-50
2022/02/09 07:31:37;;;;;;;6.43;2.63;;;8.50;95.20;;;;;;5066085;28;20129;-50
2022/02/09 07:34:03;;;;;;;5.40;2.33;;;8.40;95.20;;;;;;5064929;28;20123;-51
2022/02/09 07:36:31;;;;;;;6.50;2.45;;;8.40;95.20;;;;;;5065503;28;20051;-50
2022/02/09 07:38:58;;;;;;;5.38;2.40;;;8.40;95.30;;;;;;5061495;28;20033;-50
2022/02/09 07:41:23;;;;;;;5.22;2.30;;;8.40;95.30;;;;;;5069237;28;20101;-50
2022/02/09 07:44:13;;;;;;;6.78;2.47;;;8.40;95.30;;;;;;5071828;28;20062;-50
2022/02/09 07:51:40;;;;;;;7.75;2.22;;;8.40;95.30;;;;;;5073347;28;20350;-50
2022/02/09 07:54:07;;;;;;;5.93;2.30;;;8.40;95.30;;;;;;5071803;28;20065;-50
2022/02/09 07:56:35;;;;;;;8.25;2.85;;;8.40;95.30;;;;;;5073742;28;20370;-50
2022/02/09 07:59:02;;;;;;;3.38;2.17;;;8.40;95.40;;;;;;5071500;28;20129;-50
2022/02/09 08:01:28;;;;;;;7.05;2.42;;;8.40;95.40;;;;;;5076188;28;20032;-50
2022/02/09 08:03:54;;;;;;;6.13;2.67;;;8.40;95.40;;;;;;5072573;28;20029;-51
2022/02/09 08:06:24;;;;;;;6.70;3.28;;;8.40;95.40;;;;;;5076710;28;20472;-50
2022/02/09 08:08:52;;;;;;;13.93;2.90;;;8.50;95.40;;;;;;5071368;28;20043;-50
2022/02/09 08:11:23;;;;;;;8.00;3.13;;;8.50;95.50;;;;;;5076306;28;20033;-50
2022/02/09 08:35:02;;;;;;;4.55;2.30;;;8.80;94.80;;;;;;5065984;28;20016;-50
2022/02/09 08:37:29;;;;;;;11.65;3.28;;;8.80;94.80;;;;;;5070403;28;20332;-50
2022/02/09 08:39:55;;;;;;;3.45;2.00;;;8.80;94.70;;;;;;5072000;28;20104;-50
2022/02/09 08:42:21;;;;;;;5.30;2.67;;;8.90;94.60;;;;;;5068547;28;20054;-50
2022/02/09 08:44:47;;;;;;;4.68;2.90;;;8.90;94.60;;;;;;5073093;28;20016;-50
2022/02/09 08:47:13;;;;;;;3.40;2.35;;;8.90;94.60;;;;;;5073741;28;20036;-50
2022/02/09 08:49:39;;;;;;;4.78;2.42;;;9.00;94.50;;;;;;5065295;28;20076;-50
2022/02/09 08:52:05;;;;;;;11.23;3.65;;;9.00;94.70;;;;;;5076673;28;20067;-50
2022/02/09 08:54:32;;;;;;;10.18;3.53;;;9.00;94.70;;;;;;5071457;28;20489;-50
2022/02/09 08:56:59;;;;;;;7.10;3.20;;;9.00;94.80;;;;;;5066196;28;20057;-50
2022/02/09 08:59:28;;;;;;;5.90;3.30;;;9.00;94.70;;;;;;5061944;28;20044;-50
2022/02/09 09:02:00;;;;;;;6.53;3.17;;;9.10;95.00;;;;;;5068024;28;20052;-50
2022/02/09 09:04:32;;;;;;;2.85;2.03;;;9.10;95.60;;;;;;5065662;28;20025;-50
2022/02/09 09:06:59;;;;;;;4.22;2.30;;;9.10;95.20;;;;;;5068457;28;20432;-50
2022/02/09 09:09:37;;;;;;;11.27;2.80;;;9.20;95.40;;;;;;5062467;28;20041;-50
2022/02/09 09:14:55;;;;;;;15.60;3.83;;;9.20;95.70;;;;;;5062085;28;20072;-50
2022/02/09 10:03:59;;;;;;;0.68;0.68;;;9.70;97.30;;;;;;5069463;28;20024;-48
2022/02/09 10:35:19;;;;;;;1.73;0.80;;;10.40;95.70;;;;;;5075696;28;20040;-49
2022/02/09 10:37:45;;;;;;;2.70;1.30;;;10.30;95.50;;;;;;5072613;28;20090;-49
2022/02/09 10:40:27;;;;;;;4.40;2.15;;;10.40;95.40;;;;;;5074600;28;20469;-49
2022/02/09 10:42:58;;;;;;;3.85;1.73;;;10.50;95.10;;;;;;5073140;28;20028;-49
2022/02/09 10:45:48;;;;;;;7.03;2.28;;;10.50;95.00;;;;;;5073849;28;20049;-49
2022/02/09 10:48:37;;;;;;;3.72;1.88;;;10.50;94.90;;;;;;5074566;28;20052;-49
2022/02/09 10:51:24;;;;;;;2.57;1.67;;;10.60;95.00;;;;;;5069773;28;20033;-49
2022/02/09 10:54:13;;;;;;;2.05;1.40;;;10.60;94.90;;;;;;5075791;28;20717;-49
2022/02/09 10:56:44;;;;;;;3.50;1.65;;;10.60;94.80;;;;;;5076296;28;20112;-49
2022/02/09 10:59:12;;;;;;;3.60;1.70;;;10.60;94.90;;;;;;5073140;28;20101;-49
2022/02/09 11:01:39;;;;;;;0.75;0.75;;;10.60;95.10;;;;;;5071622;28;20032;-49
2022/02/09 11:04:07;;;;;;;1.52;1.25;;;10.60;95.20;;;;;;5075652;28;20207;-50
2022/02/09 11:06:39;;;;;;;4.20;1.50;;;10.70;95.20;;;;;;5072491;28;20039;-49
2022/02/09 11:09:14;;;;;;;3.28;1.58;;;10.60;95.30;;;;;;5080504;28;20127;-49
2022/02/09 11:11:41;;;;;;;6.20;2.22;;;10.60;95.30;;;;;;5072145;28;20043;-49
2022/02/09 11:14:16;;;;;;;1.23;0.80;;;10.60;95.50;;;;;;5065645;28;20074;-49
2022/02/09 11:16:45;;;;;;;1.73;1.15;;;10.60;95.70;;;;;;5065587;28;20021;-50
2022/02/09 11:19:12;;;;;;;0.68;0.68;;;10.50;95.50;;;;;;5063985;28;20036;-49
2022/02/09 11:21:39;;;;;;;3.40;1.33;;;10.50;95.70;;;;;;5065354;28;20059;-49
2022/02/09 11:24:22;;;;;;;0.50;0.50;;;10.50;95.60;;;;;;5067103;28;20067;-50
2022/02/09 11:27:07;;;;;;;1.15;1.08;;;10.50;95.50;;;;;;5063476;28;20104;-49
2022/02/09 11:29:43;;;;;;;0.47;0.47;;;10.50;95.20;;;;;;5066738;28;20063;-49
2022/02/09 11:35:07;;;;;;;0.30;0.30;;;10.50;97.00;;;;;;5070547;28;20322;-49
2022/02/09 11:37:46;;;;;;;2.83;1.60;;;10.50;96.30;;;;;;5065363;28;20052;-49
2022/02/09 12:11:17;;;;;;;3.85;1.60;;;10.90;96.40;;;;;;5069096;28;20079;-50
2022/02/09 12:13:57;;;;;;;2.80;1.20;;;10.90;96.30;;;;;;5065444;28;20408;-49
2022/02/09 12:16:42;;;;;;;7.95;2.67;;;10.90;96.30;;;;;;5068405;28;20043;-49
2022/02/09 12:19:12;;;;;;;0.30;0.30;;;10.90;96.30;;;;;;5071572;28;20353;-50
2022/02/09 12:24:25;;;;;;;0.65;0.63;;;10.90;96.60;;;;;;5068002;28;20043;-49
2022/02/09 12:27:12;;;;;;;2.78;2.05;;;10.90;96.50;;;;;;5065867;28;20402;-49
2022/02/09 12:29:46;;;;;;;2.83;1.65;;;10.90;96.90;;;;;;5067024;28;20098;-49
2022/02/09 12:32:15;;;;;;;7.68;2.38;;;10.80;96.80;;;;;;5067574;28;20024;-49
2022/02/09 12:34:58;;;;;;;4.35;1.67;;;10.80;96.80;;;;;;5070838;28;20025;-49
2022/02/09 12:37:30;;;;;;;1.92;1.45;;;10.70;97.10;;;;;;5067029;28;20035;-50
2022/02/09 12:39:58;;;;;;;3.63;1.48;;;10.70;97.10;;;;;;5071467;28;20025;-50
2022/02/09 12:42:29;;;;;;;4.00;1.92;;;10.80;97.10;;;;;;5071400;28;20388;-50
2022/02/09 12:45:05;;;;;;;4.07;2.53;;;10.80;97.10;;;;;;5073273;28;20017;-49
2022/02/09 12:47:33;;;;;;;2.45;1.70;;;10.90;97.00;;;;;;5069021;28;20130;-49
2022/02/09 12:50:02;;;;;;;2.92;1.42;;;10.90;97.00;;;;;;5070881;28;20029;-49
2022/02/09 12:52:29;;;;;;;3.17;1.45;;;10.90;97.00;;;;;;5068458;28;20055;-50
2022/02/09 12:55:08;;;;;;;6.60;1.85;;;11.00;96.90;;;;;;5072508;28;20028;-50
2022/02/09 12:57:40;;;;;;;1.60;1.07;;;11.00;96.90;;;;;;5072607;28;20488;-50
2022/02/09 13:00:20;;;;;;;2.15;1.67;;;11.00;96.90;;;;;;5070631;28;20070;-50
2022/02/09 13:02:45;;;;;;;0.88;0.88;;;11.00;96.80;;;;;;5074826;28;20509;-50
2022/02/09 13:05:12;;;;;;;0.55;0.55;;;10.90;96.90;;;;;;5073850;28;20039;-50
2022/02/09 13:07:37;;;;;;;3.53;1.85;;;10.90;97.00;;;;;;5070566;28;20096;-50
2022/02/09 13:10:05;;;;;;;1.58;1.10;;;10.90;97.20;;;;;;5071317;28;20028;-49
2022/02/09 13:12:31;;;;;;;3.15;1.70;;;10.80;97.10;;;;;;5068470;28;20032;-50
2022/02/09 13:15:13;;;;;;;3.83;2.50;;;10.80;97.40;;;;;;5071076;28;20025;-50
2022/02/09 13:21:05;;;;;;;0.90;0.90;;;10.70;97.40;;;;;;5068880;28;20624;-50
2022/02/09 13:51:57;;;;;;;2.97;1.75;;;10.70;97.40;;;;;;5074149;28;20358;-49
2022/02/09 14:11:25;;;;;;;5.05;1.13;;;10.70;97.10;;;;;;5071525;28;20025;-50
2022/02/09 14:17:17;;;;;;;2.75;1.88;;;10.70;97.50;;;;;;5065689;28;20124;-50
2022/02/09 14:19:33;;;;;;;4.65;2.00;;;10.60;97.50;;;;;;5068024;28;20044;-50
2022/02/09 14:57:04;;;;;;;2.50;0.55;;;10.60;96.70;;;;;;5071878;28;20063;-50
2022/02/09 15:00:04;;;;;;;7.80;2.72;;;10.60;96.70;;;;;;5069203;28;20029;-50
2022/02/09 15:02:37;;;;;;;0.90;0.70;;;10.60;96.50;;;;;;5061168;28;20069;-50
2022/02/09 15:07:56;;;;;;;5.72;2.20;;;10.60;96.30;;;;;;5062118;28;20532;-50
2022/02/09 15:12:59;;;;;;;4.03;1.55;;;10.60;96.30;;;;;;5068459;28;20027;-50
2022/02/09 15:15:49;;;;;;;5.60;3.67;;;10.60;95.80;;;;;;5071236;28;20036;-50
2022/02/09 15:21:27;;;;;;;4.82;2.13;;;10.60;95.60;;;;;;5070354;28;20373;-50
2022/02/09 15:23:45;;;;;;;5.10;2.15;;;10.60;95.80;;;;;;5069613;28;20340;-50
2022/02/09 15:26:11;;;;;;;3.60;2.47;;;10.60;95.80;;;;;;5071474;28;20307;-50
2022/02/09 15:28:37;;;;;;;4.50;1.80;;;10.60;95.90;;;;;;5071328;28;20060;-50
2022/02/09 15:31:19;;;;;;;5.47;2.67;;;10.60;95.90;;;;;;5069899;28;20060;-50
2022/02/09 15:33:49;;;;;;;10.13;2.22;;;10.60;95.20;;;;;;5073359;28;20244;-50
2022/02/09 15:36:18;;;;;;;2.60;1.90;;;10.60;95.10;;;;;;5073316;28;20020;-51
2022/02/09 15:38:46;;;;;;;4.82;2.95;;;10.60;95.30;;;;;;5066993;28;20045;-50
2022/02/09 16:23:58;;;;;;;7.43;3.50;;;10.40;96.60;;;;;;5105222;28;20037;-49
2022/02/09 16:45:00;;;;;;;13.95;3.78;;;10.30;96.70;;;;;;5102526;28;20051;-50
2022/02/09 16:48:01;;;;;;;7.82;4.28;;;10.30;96.70;;;;;;5104963;28;20437;-49
2022/02/09 16:50:24;;;;;;;13.23;4.13;;;10.30;96.60;;;;;;5095447;28;20090;-50
2022/02/09 16:52:58;;;;;;;9.45;5.10;;;10.30;96.60;;;;;;5077266;28;20032;-49
2022/02/09 16:56:07;;;;;;;13.90;5.43;;;10.30;96.60;;;;;;5074038;28;20441;-50
2022/02/09 17:19:50;;;;;;;12.65;5.30;;;10.10;96.50;;;;;;5072603;28;20035;-50
2022/02/09 17:22:15;;;;;;;8.15;3.78;;;10.10;96.40;;;;;;5077327;28;20135;-50
2022/02/09 17:24:41;;;;;;;6.95;4.15;;;10.10;96.40;;;;;;5066027;28;20039;-50
2022/02/09 17:27:11;;;;;;;11.32;4.07;;;10.10;96.50;;;;;;5063059;28;20078;-50
2022/02/09 17:32:26;;;;;;;8.68;4.13;;;10.10;96.40;;;;;;5066694;28;20032;-50
2022/02/09 17:35:12;;;;;;;9.38;4.30;;;10.10;96.50;;;;;;5061300;28;20028;-49
2022/02/09 17:38:16;;;;;;;17.30;6.85;;;10.10;96.50;;;;;;5064119;28;20024;-50
2022/02/09 17:55:15;;;;;;;62.63;21.95;;;10.00;96.40;;;;;;5067279;28;20039;-49
2022/02/09 17:57:10;;;;;;;13.20;4.45;;;10.00;96.40;;;;;;5066297;28;20533;-50
2022/02/09 17:59:45;;;;;;;11.38;4.25;;;10.00;96.40;;;;;;5065800;28;20044;-49
2022/02/09 18:02:11;;;;;;;9.50;4.38;;;10.00;96.40;;;;;;5067692;28;20454;-49
2022/02/09 18:04:43;;;;;;;16.58;5.22;;;9.90;96.40;;;;;;5068866;28;20027;-50
2022/02/09 18:07:13;;;;;;;19.70;7.50;;;9.90;96.40;;;;;;5072341;28;20051;-49
2022/02/09 18:09:45;;;;;;;14.45;5.68;;;9.90;96.40;;;;;;5067534;28;20037;-50
2022/02/09 18:12:21;;;;;;;16.33;5.10;;;9.90;96.70;;;;;;5069787;28;20341;-50
2022/02/09 18:33:51;;;;;;;15.43;5.15;;;9.80;96.30;;;;;;5064884;28;20450;-49
2022/02/09 19:00:54;;;;;;;10.25;3.85;;;9.70;96.30;;;;;;5067823;28;20453;-50
2022/02/09 19:03:24;;;;;;;7.30;3.15;;;9.70;96.30;;;;;;5065876;28;20029;-50
2022/02/09 19:05:51;;;;;;;5.80;3.55;;;9.70;96.30;;;;;;5066944;28;20112;-50
2022/02/09 19:29:55;;;;;;;25.48;8.68;;;9.60;96.60;;;;;;5061743;28;20037;-50
2022/02/09 19:32:55;;;;;;;20.35;8.18;;;9.60;96.30;;;;;;5058862;28;20103;-50
2022/02/09 19:41:06;;;;;;;21.63;8.68;;;9.60;96.30;;;;;;5059626;28;20624;-50
2022/02/09 19:48:44;;;;;;;8.20;3.80;;;9.60;96.20;;;;;;5067067;28;20118;-50
2022/02/09 19:56:11;;;;;;;14.85;7.10;;;9.60;96.30;;;;;;5060714;28;20086;-50
2022/02/09 19:58:44;;;;;;;11.95;5.70;;;9.50;96.30;;;;;;5067598;28;20032;-51
2022/02/09 20:01:14;;;;;;;17.10;6.43;;;9.50;96.20;;;;;;5066093;28;20021;-51
2022/02/09 20:03:40;;;;;;;15.40;6.57;;;9.50;96.20;;;;;;5059868;28;20350;-51
2022/02/09 20:06:07;;;;;;;18.60;5.90;;;9.50;96.20;;;;;;5062453;28;20024;-51
2022/02/09 20:08:36;;;;;;;13.43;5.35;;;9.50;96.20;;;;;;5061994;28;20039;-51
2022/02/09 20:11:03;;;;;;;9.55;5.22;;;9.50;96.20;;;;;;5064865;28;20063;-51
2022/02/09 20:13:28;;;;;;;12.55;5.28;;;9.50;96.20;;;;;;5062236;28;20359;-51
2022/02/09 20:15:54;;;;;;;15.65;5.88;;;9.50;96.10;;;;;;5065147;28;20024;-51
2022/02/09 20:18:20;;;;;;;17.10;4.85;;;9.50;96.20;;;;;;5065010;28;20017;-50
2022/02/09 20:20:46;;;;;;;12.48;4.82;;;9.50;96.20;;;;;;5066749;28;20040;-51
2022/02/09 20:23:12;;;;;;;14.40;5.05;;;9.50;96.20;;;;;;5063873;28;20049;-50
2022/02/09 20:25:38;;;;;;;13.48;5.45;;;9.50;96.20;;;;;;5068530;28;20028;-51
2022/02/09 20:28:05;;;;;;;9.57;4.72;;;9.50;96.20;;;;;;5066308;28;20358;-51
2022/02/09 20:30:44;;;;;;;9.98;4.68;;;9.50;96.10;;;;;;5067985;28;20321;-51
2022/02/09 20:33:14;;;;;;;12.18;4.65;;;9.50;96.10;;;;;;5071321;28;20170;-51
2022/02/09 20:35:40;;;;;;;13.20;5.18;;;9.50;96.10;;;;;;5071946;28;20028;-51
2022/02/09 20:38:11;;;;;;;17.23;5.13;;;9.50;96.10;;;;;;5071749;28;20085;-51
2022/02/09 20:40:56;;;;;;;11.32;5.00;;;9.40;96.10;;;;;;5069557;28;20027;-51
2022/02/09 20:43:24;;;;;;;14.98;4.75;;;9.50;96.10;;;;;;5068293;28;20078;-51
2022/02/09 20:45:53;;;;;;;12.20;4.60;;;9.40;96.10;;;;;;5067090;28;20032;-50
2022/02/09 20:48:27;;;;;;;12.30;4.85;;;9.40;96.10;;;;;;5071355;28;20044;-50
2022/02/09 20:50:57;;;;;;;11.27;5.40;;;9.40;96.10;;;;;;5058981;28;20025;-50
2022/02/09 20:53:24;;;;;;;16.33;6.30;;;9.40;96.10;;;;;;5064585;28;20433;-50
2022/02/09 20:55:50;;;;;;;22.80;6.50;;;9.40;96.10;;;;;;5063983;28;20320;-50
2022/02/09 20:58:17;;;;;;;13.50;6.10;;;9.40;96.00;;;;;;5057175;28;20466;-51
2022/02/09 21:56:29;;;;;;;24.80;9.70;;;9.30;95.90;;;;;;5060112;28;20021;-50
2022/02/09 22:16:10;;;;;;;15.38;5.85;;;9.20;95.90;;;;;;5063350;28;20469;-51
2022/02/09 22:28:12;;;;;;;15.90;5.82;;;9.10;95.80;;;;;;5055243;28;20041;-50
2022/02/09 22:31:18;;;;;;;12.77;5.80;;;9.20;95.90;;;;;;5059879;28;20033;-51
2022/02/09 22:50:02;;;;;;;14.38;4.63;;;9.10;95.80;;;;;;5058726;28;20069;-51
2022/02/09 22:55:24;;;;;;;11.60;3.22;;;9.10;95.80;;;;;;5061167;28;20028;-51
2022/02/09 22:58:03;;;;;;;;;;;9.10;95.80;;;;;;5055223;28;20271;-51
2022/02/09 23:00:56;;;;;;;36.25;10.88;;;9.10;95.80;;;;;;5061346;28;20097;-51
2022/02/09 23:03:33;;;;;;;104.28;30.80;;;9.10;95.80;;;;;;5057938;28;20036;-51
2022/02/09 23:06:13;;;;;;;120.40;33.05;;;9.10;95.80;;;;;;5057342;28;20029;-51
2022/02/09 23:11:26;;;;;;;82.40;22.15;;;9.10;95.70;;;;;;5062156;28;20021;-51
2022/02/09 23:14:06;;;;;;;43.67;15.40;;;9.10;95.80;;;;;;5057460;28;20037;-51
